»·PEaware :: N973LW KBFL-KMHV

N973LW :: KBFL-KMHV

FLIGHT INFORMATION

Flight Status: Arrived
Operator: Privately registered:
United States
More flights under this callsign
Pilot: Anonymous 26214 (26214)
Aircraft: CESSNA 172 SKYHAWK
(C172)
More flights by this aircraft type
Origin: KBFL Meadows
United States
Destination: KMHV Mojave
United States
More flights between these airports :: More routes between these airports
Route: +
File this flight plan on PilotEdge
Remarks:
Altitude:
(Current/Filed)
0ft
Speed:
(Current/Filed)
0kts
Departed: 03-Nov-19 09:47 AM
Arrived: 03-Nov-19 10:21 AM
Distance/Time
Traveled:
0nm/0:34
Distance/Time
To Go:
Arrived

Flight Plot

Page will automatically refresh every two minutes.


Map Options




Map Legend


Flown Route
Filed Route
Departure Airport
Arrival Airport
Navaid (VOR, NDB)
Fix

Horizontal Profiles

Position Reports

Time Latitude Longitude Heading Altitude Ground
Speed
03-Nov-19 09:41 35.435703 -119.052044 180 504ft 0kts
03-Nov-19 09:42 35.435081 -119.053868 226 497ft 17kts
03-Nov-19 09:43 35.431349 -119.050943 135 493ft 21kts
03-Nov-19 09:44 35.427159 -119.045885 135 484ft 20kts
03-Nov-19 09:45 35.425919 -119.044620 188 481ft 0kts
03-Nov-19 09:46 35.429255 -119.050998 304 634ft 62kts
03-Nov-19 09:47 35.444442 -119.064538 52 1450ft 91kts
03-Nov-19 09:48 35.433897 -119.041219 123 2593ft 60kts
03-Nov-19 09:49 35.422852 -119.020108 117 3351ft 86kts
03-Nov-19 09:50 35.409859 -118.990960 115 4163ft 99kts
03-Nov-19 09:51 35.398788 -118.964873 112 5238ft 76kts
03-Nov-19 09:52 35.389570 -118.942001 112 5982ft 82kts
03-Nov-19 09:53 35.379465 -118.917882 111 6772ft 75kts
03-Nov-19 09:54 35.368343 -118.891003 112 7251ft 103kts
03-Nov-19 09:55 35.354474 -118.857647 113 7614ft 117kts
03-Nov-19 09:56 35.339713 -118.822223 113 7534ft 109kts
03-Nov-19 09:57 35.326470 -118.790234 112 7535ft 103kts
03-Nov-19 09:58 35.313717 -118.759382 112 7535ft 101kts
03-Nov-19 09:59 35.300828 -118.728184 112 7536ft 105kts
03-Nov-19 10:00 35.287439 -118.695834 113 7536ft 107kts
03-Nov-19 10:01 35.273940 -118.663204 113 7535ft 107kts
03-Nov-19 10:02 35.260159 -118.629956 113 7540ft 121kts
03-Nov-19 10:03 35.245048 -118.593803 113 7535ft 116kts
03-Nov-19 10:04 35.231428 -118.561217 113 7534ft 101kts
03-Nov-19 10:05 35.218108 -118.529020 113 7540ft 120kts
03-Nov-19 10:06 35.202939 -118.492851 113 7534ft 112kts
03-Nov-19 10:07 35.189113 -118.459794 113 7535ft 108kts
03-Nov-19 10:08 35.175596 -118.427425 113 7538ft 107kts
03-Nov-19 10:09 35.161817 -118.394531 113 7537ft 110kts
03-Nov-19 10:10 35.147710 -118.360857 113 7515ft 114kts
03-Nov-19 10:11 35.134426 -118.329291 115 7005ft 123kts
03-Nov-19 10:12 35.118713 -118.291911 116 6406ft 123kts
03-Nov-19 10:13 35.103001 -118.254523 115 5811ft 123kts
03-Nov-19 10:14 35.092206 -118.216783 61 5206ft 118kts
03-Nov-19 10:15 35.119156 -118.214335 291 5212ft 113kts
03-Nov-19 10:16 35.095427 -118.239639 188 5059ft 128kts
03-Nov-19 10:17 35.076775 -118.210256 113 4505ft 102kts
03-Nov-19 10:18 35.069241 -118.175148 94 3768ft 108kts
03-Nov-19 10:19 35.067625 -118.140347 93 3408ft 91kts
03-Nov-19 10:20 35.059150 -118.144668 275 2738ft 35kts
03-Nov-19 10:21 35.059172 -118.147373 265 2744ft 0kts
03-Nov-19 10:22 35.059171 -118.147387 265 2744ft 0kts
03-Nov-19 10:23 35.059170 -118.147406 265 2745ft 0kts
03-Nov-19 10:24 35.058380 -118.148785 225 2744ft 0kts
03-Nov-19 10:25 35.057532 -118.152234 267 2751ft 10kts
03-Nov-19 10:27 35.435702 -119.052043 180 505ft 0kts
03-Nov-19 10:28 35.435702 -119.052044 180 505ft 0kts
03-Nov-19 10:29 35.435702 -119.052044 180 505ft 0kts
03-Nov-19 10:30 35.435702 -119.052044 180 505ft 0kts
03-Nov-19 10:31 35.435702 -119.052044 180 505ft 0kts
03-Nov-19 10:32 35.435702 -119.052044 180 505ft 0kts
03-Nov-19 10:33 35.435702 -119.052044 180 505ft 0kts
03-Nov-19 10:34 35.435702 -119.052044 180 505ft 0kts
03-Nov-19 10:35 35.435702 -119.052044 180 505ft 0kts

Navigation Log

Ident Type
Flight plan parsing failed, navigation log unavailable